Terminal Aerodrome Forecast
Issued by NWS

Current Version | Previous Version | Text Only | Print | Product List | Glossary On
Versions: 1 2 3 4 5 6 7 8 9 10 11 12 13 14 15 16 17 18 19 20
314
FTUS43 KOAX 251120
TAFBFF
TAF
KBFF 251120Z 2512/2612 27006KT P6SM OVC006
     FM251400 27010KT P6SM SCT250
     FM260400 25006KT P6SM BKN250=

USA.gov is the U.S. government's official web portal to all federal, state and local government web resources and services.